sensor_id;sensor_type;location;lat;lon;timestamp;P1;durP1;ratioP1;P2;durP2;ratioP2
17796;SDS011;55596;53.554;9.916;2024-03-08T00:01:48;22.33;;;14.67;;
17796;SDS011;55596;53.554;9.916;2024-03-08T00:04:15;21.83;;;13.93;;
17796;SDS011;55596;53.554;9.916;2024-03-08T00:06:42;24.60;;;14.93;;
17796;SDS011;55596;53.554;9.916;2024-03-08T00:09:11;19.97;;;13.50;;
17796;SDS011;55596;53.554;9.916;2024-03-08T00:11:38;23.40;;;15.20;;
17796;SDS011;55596;53.554;9.916;2024-03-08T00:14:05;23.50;;;16.20;;
17796;SDS011;55596;53.554;9.916;2024-03-08T00:16:34;22.63;;;14.77;;
17796;SDS011;55596;53.554;9.916;2024-03-08T00:19:03;20.87;;;14.20;;
17796;SDS011;55596;53.554;9.916;2024-03-08T00:21:30;27.80;;;15.40;;
17796;SDS011;55596;53.554;9.916;2024-03-08T00:23:57;21.93;;;13.50;;
17796;SDS011;55596;53.554;9.916;2024-03-08T00:26:25;23.70;;;15.13;;
17796;SDS011;55596;53.554;9.916;2024-03-08T00:28:53;20.10;;;14.83;;
17796;SDS011;55596;53.554;9.916;2024-03-08T00:31:21;24.50;;;16.07;;
17796;SDS011;55596;53.554;9.916;2024-03-08T00:33:48;20.63;;;14.40;;
17796;SDS011;55596;53.554;9.916;2024-03-08T00:36:16;24.80;;;15.63;;
17796;SDS011;55596;53.554;9.916;2024-03-08T00:38:43;21.93;;;15.70;;
17796;SDS011;55596;53.554;9.916;2024-03-08T00:41:10;21.77;;;14.73;;
17796;SDS011;55596;53.554;9.916;2024-03-08T00:43:38;23.70;;;15.20;;
17796;SDS011;55596;53.554;9.916;2024-03-08T00:46:05;23.60;;;15.60;;
17796;SDS011;55596;53.554;9.916;2024-03-08T00:48:32;23.27;;;14.70;;
17796;SDS011;55596;53.554;9.916;2024-03-08T00:51:02;24.70;;;15.47;;
17796;SDS011;55596;53.554;9.916;2024-03-08T00:53:31;26.97;;;16.10;;
17796;SDS011;55596;53.554;9.916;2024-03-08T00:55:58;23.27;;;15.13;;
17796;SDS011;55596;53.554;9.916;2024-03-08T00:58:25;23.27;;;14.80;;
17796;SDS011;55596;53.554;9.916;2024-03-08T01:00:53;22.47;;;15.80;;
17796;SDS011;55596;53.554;9.916;2024-03-08T01:03:21;23.07;;;15.13;;
17796;SDS011;55596;53.554;9.916;2024-03-08T01:05:48;27.50;;;16.27;;
17796;SDS011;55596;53.554;9.916;2024-03-08T01:08:16;24.50;;;15.63;;
17796;SDS011;55596;53.554;9.916;2024-03-08T01:10:44;25.73;;;15.93;;
17796;SDS011;55596;53.554;9.916;2024-03-08T01:13:11;25.57;;;15.10;;
17796;SDS011;55596;53.554;9.916;2024-03-08T01:15:38;25.53;;;15.10;;
17796;SDS011;55596;53.554;9.916;2024-03-08T01:18:06;24.90;;;15.27;;
17796;SDS011;55596;53.554;9.916;2024-03-08T01:20:33;23.70;;;14.83;;
17796;SDS011;55596;53.554;9.916;2024-03-08T01:23:00;23.87;;;16.07;;
17796;SDS011;55596;53.554;9.916;2024-03-08T01:25:29;25.65;;;18.63;;
17796;SDS011;55596;53.554;9.916;2024-03-08T01:27:58;23.40;;;15.83;;
17796;SDS011;55596;53.554;9.916;2024-03-08T01:30:25;24.50;;;15.60;;
17796;SDS011;55596;53.554;9.916;2024-03-08T01:32:52;25.93;;;15.90;;
17796;SDS011;55596;53.554;9.916;2024-03-08T01:35:19;24.50;;;16.13;;
17796;SDS011;55596;53.554;9.916;2024-03-08T01:37:47;25.43;;;15.93;;
17796;SDS011;55596;53.554;9.916;2024-03-08T01:40:14;26.73;;;15.83;;
17796;SDS011;55596;53.554;9.916;2024-03-08T01:42:42;24.87;;;15.33;;
17796;SDS011;55596;53.554;9.916;2024-03-08T01:45:11;23.53;;;15.50;;
17796;SDS011;55596;53.554;9.916;2024-03-08T01:47:38;26.97;;;16.57;;
17796;SDS011;55596;53.554;9.916;2024-03-08T01:50:05;24.17;;;15.33;;
17796;SDS011;55596;53.554;9.916;2024-03-08T01:52:33;25.40;;;16.10;;
17796;SDS011;55596;53.554;9.916;2024-03-08T01:55:01;24.87;;;15.60;;
17796;SDS011;55596;53.554;9.916;2024-03-08T01:57:28;28.20;;;17.63;;
17796;SDS011;55596;53.554;9.916;2024-03-08T01:59:58;31.37;;;17.23;;
17796;SDS011;55596;53.554;9.916;2024-03-08T02:02:29;28.43;;;16.97;;
17796;SDS011;55596;53.554;9.916;2024-03-08T02:04:59;28.40;;;16.70;;
17796;SDS011;55596;53.554;9.916;2024-03-08T02:07:27;24.97;;;16.50;;
17796;SDS011;55596;53.554;9.916;2024-03-08T02:09:54;26.50;;;16.10;;
17796;SDS011;55596;53.554;9.916;2024-03-08T02:12:21;25.47;;;16.83;;
17796;SDS011;55596;53.554;9.916;2024-03-08T02:14:48;26.70;;;17.20;;
17796;SDS011;55596;53.554;9.916;2024-03-08T02:17:15;29.90;;;17.90;;
17796;SDS011;55596;53.554;9.916;2024-03-08T02:19:44;28.07;;;16.63;;
17796;SDS011;55596;53.554;9.916;2024-03-08T02:22:13;27.43;;;16.87;;
17796;SDS011;55596;53.554;9.916;2024-03-08T02:24:40;28.93;;;17.43;;
17796;SDS011;55596;53.554;9.916;2024-03-08T02:27:07;27.40;;;17.00;;
17796;SDS011;55596;53.554;9.916;2024-03-08T02:29:36;30.00;;;17.77;;
17796;SDS011;55596;53.554;9.916;2024-03-08T02:32:06;27.43;;;16.97;;
17796;SDS011;55596;53.554;9.916;2024-03-08T02:34:33;26.67;;;17.20;;
17796;SDS011;55596;53.554;9.916;2024-03-08T02:37:00;28.40;;;17.50;;
17796;SDS011;55596;53.554;9.916;2024-03-08T02:39:30;26.40;;;16.33;;
17796;SDS011;55596;53.554;9.916;2024-03-08T02:41:57;26.50;;;17.13;;
17796;SDS011;55596;53.554;9.916;2024-03-08T02:44:24;27.63;;;17.77;;
17796;SDS011;55596;53.554;9.916;2024-03-08T02:46:51;33.33;;;18.63;;
17796;SDS011;55596;53.554;9.916;2024-03-08T02:49:20;27.37;;;17.83;;
17796;SDS011;55596;53.554;9.916;2024-03-08T02:51:47;28.20;;;17.57;;
17796;SDS011;55596;53.554;9.916;2024-03-08T02:54:14;28.00;;;17.60;;
17796;SDS011;55596;53.554;9.916;2024-03-08T02:56:43;32.60;;;18.47;;
17796;SDS011;55596;53.554;9.916;2024-03-08T02:59:11;30.50;;;18.43;;
17796;SDS011;55596;53.554;9.916;2024-03-08T03:01:38;31.30;;;18.30;;
17796;SDS011;55596;53.554;9.916;2024-03-08T03:04:06;33.03;;;18.83;;
17796;SDS011;55596;53.554;9.916;2024-03-08T03:06:33;30.27;;;18.17;;
17796;SDS011;55596;53.554;9.916;2024-03-08T03:09:00;32.00;;;19.70;;
17796;SDS011;55596;53.554;9.916;2024-03-08T03:11:31;33.83;;;18.90;;
17796;SDS011;55596;53.554;9.916;2024-03-08T03:13:59;31.87;;;18.60;;
17796;SDS011;55596;53.554;9.916;2024-03-08T03:16:26;34.80;;;19.47;;
17796;SDS011;55596;53.554;9.916;2024-03-08T03:18:53;31.57;;;19.10;;
17796;SDS011;55596;53.554;9.916;2024-03-08T03:21:22;33.43;;;18.53;;
17796;SDS011;55596;53.554;9.916;2024-03-08T03:23:49;33.63;;;19.57;;
17796;SDS011;55596;53.554;9.916;2024-03-08T03:26:17;29.67;;;19.10;;
17796;SDS011;55596;53.554;9.916;2024-03-08T03:28:44;31.97;;;19.57;;
17796;SDS011;55596;53.554;9.916;2024-03-08T03:31:13;32.60;;;19.87;;
17796;SDS011;55596;53.554;9.916;2024-03-08T03:33:40;30.77;;;19.97;;
17796;SDS011;55596;53.554;9.916;2024-03-08T03:36:07;29.07;;;18.53;;
17796;SDS011;55596;53.554;9.916;2024-03-08T03:38:35;30.67;;;19.20;;
17796;SDS011;55596;53.554;9.916;2024-03-08T03:41:02;30.33;;;19.90;;
17796;SDS011;55596;53.554;9.916;2024-03-08T03:43:35;33.87;;;20.03;;
17796;SDS011;55596;53.554;9.916;2024-03-08T03:46:02;32.03;;;19.10;;
17796;SDS011;55596;53.554;9.916;2024-03-08T03:48:33;33.67;;;19.50;;
17796;SDS011;55596;53.554;9.916;2024-03-08T03:51:00;30.87;;;19.50;;
17796;SDS011;55596;53.554;9.916;2024-03-08T03:53:27;34.63;;;20.00;;
17796;SDS011;55596;53.554;9.916;2024-03-08T03:55:54;35.57;;;21.23;;
17796;SDS011;55596;53.554;9.916;2024-03-08T03:58:21;30.83;;;18.33;;
17796;SDS011;55596;53.554;9.916;2024-03-08T04:00:48;33.27;;;20.27;;
17796;SDS011;55596;53.554;9.916;2024-03-08T04:03:15;35.00;;;20.07;;
17796;SDS011;55596;53.554;9.916;2024-03-08T04:05:44;38.03;;;20.97;;
17796;SDS011;55596;53.554;9.916;2024-03-08T04:08:12;34.20;;;20.47;;
17796;SDS011;55596;53.554;9.916;2024-03-08T04:10:40;33.17;;;19.67;;
17796;SDS011;55596;53.554;9.916;2024-03-08T04:13:07;32.40;;;19.30;;
17796;SDS011;55596;53.554;9.916;2024-03-08T04:15:35;36.00;;;19.47;;
17796;SDS011;55596;53.554;9.916;2024-03-08T04:18:03;34.57;;;20.37;;
17796;SDS011;55596;53.554;9.916;2024-03-08T04:20:30;34.03;;;20.07;;
17796;SDS011;55596;53.554;9.916;2024-03-08T04:22:58;34.73;;;21.17;;
17796;SDS011;55596;53.554;9.916;2024-03-08T04:25:25;37.93;;;21.10;;
17796;SDS011;55596;53.554;9.916;2024-03-08T04:27:53;36.77;;;20.83;;
17796;SDS011;55596;53.554;9.916;2024-03-08T04:30:20;35.83;;;20.23;;
17796;SDS011;55596;53.554;9.916;2024-03-08T04:32:47;35.83;;;20.30;;
17796;SDS011;55596;53.554;9.916;2024-03-08T04:35:15;33.67;;;21.00;;
17796;SDS011;55596;53.554;9.916;2024-03-08T04:37:42;36.13;;;20.93;;
17796;SDS011;55596;53.554;9.916;2024-03-08T04:40:11;41.37;;;21.60;;
17796;SDS011;55596;53.554;9.916;2024-03-08T04:42:38;36.83;;;21.57;;
17796;SDS011;55596;53.554;9.916;2024-03-08T04:45:06;33.30;;;21.20;;
17796;SDS011;55596;53.554;9.916;2024-03-08T04:47:35;41.00;;;23.20;;
17796;SDS011;55596;53.554;9.916;2024-03-08T04:50:03;34.73;;;21.77;;
17796;SDS011;55596;53.554;9.916;2024-03-08T04:52:30;37.07;;;21.80;;
17796;SDS011;55596;53.554;9.916;2024-03-08T04:54:57;35.33;;;20.13;;
17796;SDS011;55596;53.554;9.916;2024-03-08T04:57:26;36.97;;;21.43;;
17796;SDS011;55596;53.554;9.916;2024-03-08T04:59:55;36.73;;;20.10;;
17796;SDS011;55596;53.554;9.916;2024-03-08T05:02:24;36.50;;;21.50;;
17796;SDS011;55596;53.554;9.916;2024-03-08T05:04:51;39.97;;;21.83;;
17796;SDS011;55596;53.554;9.916;2024-03-08T05:07:18;39.50;;;21.30;;
17796;SDS011;55596;53.554;9.916;2024-03-08T05:09:46;38.67;;;21.00;;
17796;SDS011;55596;53.554;9.916;2024-03-08T05:12:16;37.37;;;21.83;;
17796;SDS011;55596;53.554;9.916;2024-03-08T05:14:45;41.63;;;21.50;;
17796;SDS011;55596;53.554;9.916;2024-03-08T05:17:14;40.60;;;22.73;;
17796;SDS011;55596;53.554;9.916;2024-03-08T05:19:41;35.17;;;19.97;;
17796;SDS011;55596;53.554;9.916;2024-03-08T05:22:08;39.17;;;22.87;;
17796;SDS011;55596;53.554;9.916;2024-03-08T05:24:35;36.27;;;20.87;;
17796;SDS011;55596;53.554;9.916;2024-03-08T05:27:02;37.90;;;21.20;;
17796;SDS011;55596;53.554;9.916;2024-03-08T05:29:29;39.50;;;21.73;;
17796;SDS011;55596;53.554;9.916;2024-03-08T05:31:58;34.73;;;21.43;;
17796;SDS011;55596;53.554;9.916;2024-03-08T05:34:25;35.73;;;21.33;;
17796;SDS011;55596;53.554;9.916;2024-03-08T05:36:54;35.33;;;21.20;;
17796;SDS011;55596;53.554;9.916;2024-03-08T05:39:23;40.27;;;20.97;;
17796;SDS011;55596;53.554;9.916;2024-03-08T05:41:50;39.90;;;21.80;;
17796;SDS011;55596;53.554;9.916;2024-03-08T05:44:17;35.20;;;22.10;;
17796;SDS011;55596;53.554;9.916;2024-03-08T05:46:45;39.67;;;22.20;;
17796;SDS011;55596;53.554;9.916;2024-03-08T05:49:13;41.80;;;21.30;;
17796;SDS011;55596;53.554;9.916;2024-03-08T05:51:40;42.27;;;23.47;;
17796;SDS011;55596;53.554;9.916;2024-03-08T05:54:08;36.33;;;21.30;;
17796;SDS011;55596;53.554;9.916;2024-03-08T05:56:36;35.77;;;20.70;;
17796;SDS011;55596;53.554;9.916;2024-03-08T05:59:03;35.67;;;21.30;;
17796;SDS011;55596;53.554;9.916;2024-03-08T06:01:30;38.37;;;21.63;;
17796;SDS011;55596;53.554;9.916;2024-03-08T06:04:01;40.10;;;22.40;;
17796;SDS011;55596;53.554;9.916;2024-03-08T06:06:29;41.07;;;22.30;;
17796;SDS011;55596;53.554;9.916;2024-03-08T06:08:56;36.20;;;21.20;;
17796;SDS011;55596;53.554;9.916;2024-03-08T06:11:24;36.83;;;21.13;;
17796;SDS011;55596;53.554;9.916;2024-03-08T06:13:52;40.63;;;21.27;;
17796;SDS011;55596;53.554;9.916;2024-03-08T06:16:24;37.20;;;21.90;;
17796;SDS011;55596;53.554;9.916;2024-03-08T06:18:54;38.13;;;21.60;;
17796;SDS011;55596;53.554;9.916;2024-03-08T06:21:22;39.17;;;22.60;;
17796;SDS011;55596;53.554;9.916;2024-03-08T06:23:52;38.70;;;21.50;;
17796;SDS011;55596;53.554;9.916;2024-03-08T06:26:20;38.50;;;21.67;;
17796;SDS011;55596;53.554;9.916;2024-03-08T06:28:47;43.77;;;22.50;;
17796;SDS011;55596;53.554;9.916;2024-03-08T06:31:15;36.77;;;21.13;;
17796;SDS011;55596;53.554;9.916;2024-03-08T06:33:43;39.77;;;21.10;;
17796;SDS011;55596;53.554;9.916;2024-03-08T06:36:10;37.70;;;21.93;;
17796;SDS011;55596;53.554;9.916;2024-03-08T06:38:38;36.83;;;21.07;;
17796;SDS011;55596;53.554;9.916;2024-03-08T06:41:08;36.93;;;21.40;;
17796;SDS011;55596;53.554;9.916;2024-03-08T06:43:40;35.67;;;21.30;;
17796;SDS011;55596;53.554;9.916;2024-03-08T06:46:07;38.33;;;21.33;;
17796;SDS011;55596;53.554;9.916;2024-03-08T06:48:34;36.13;;;20.43;;
17796;SDS011;55596;53.554;9.916;2024-03-08T06:51:02;38.30;;;22.03;;
17796;SDS011;55596;53.554;9.916;2024-03-08T06:53:30;36.63;;;21.37;;
17796;SDS011;55596;53.554;9.916;2024-03-08T06:55:57;30.93;;;20.57;;
17796;SDS011;55596;53.554;9.916;2024-03-08T06:58:25;34.50;;;20.83;;
17796;SDS011;55596;53.554;9.916;2024-03-08T07:00:52;36.90;;;22.07;;
17796;SDS011;55596;53.554;9.916;2024-03-08T07:03:23;34.37;;;20.80;;
17796;SDS011;55596;53.554;9.916;2024-03-08T07:05:51;35.40;;;20.73;;
17796;SDS011;55596;53.554;9.916;2024-03-08T07:08:19;33.50;;;21.17;;
17796;SDS011;55596;53.554;9.916;2024-03-08T07:10:47;35.50;;;19.80;;
17796;SDS011;55596;53.554;9.916;2024-03-08T07:13:14;30.90;;;19.57;;
17796;SDS011;55596;53.554;9.916;2024-03-08T07:15:43;33.73;;;21.00;;
17796;SDS011;55596;53.554;9.916;2024-03-08T07:18:10;33.20;;;19.87;;
17796;SDS011;55596;53.554;9.916;2024-03-08T07:20:40;29.43;;;19.73;;
17796;SDS011;55596;53.554;9.916;2024-03-08T07:23:07;33.97;;;20.83;;
17796;SDS011;55596;53.554;9.916;2024-03-08T07:25:35;29.20;;;19.50;;
17796;SDS011;55596;53.554;9.916;2024-03-08T07:28:04;32.93;;;20.63;;
17796;SDS011;55596;53.554;9.916;2024-03-08T07:30:32;32.67;;;20.70;;
17796;SDS011;55596;53.554;9.916;2024-03-08T07:33:27;28.77;;;20.87;;
17796;SDS011;55596;53.554;9.916;2024-03-08T07:35:55;34.00;;;20.43;;
17796;SDS011;55596;53.554;9.916;2024-03-08T07:38:22;36.27;;;20.20;;
17796;SDS011;55596;53.554;9.916;2024-03-08T07:40:49;31.33;;;20.53;;
17796;SDS011;55596;53.554;9.916;2024-03-08T07:43:17;29.37;;;20.03;;
17796;SDS011;55596;53.554;9.916;2024-03-08T07:45:44;29.30;;;20.00;;
17796;SDS011;55596;53.554;9.916;2024-03-08T07:48:12;32.83;;;19.60;;
17796;SDS011;55596;53.554;9.916;2024-03-08T07:50:40;34.73;;;19.17;;
17796;SDS011;55596;53.554;9.916;2024-03-08T07:53:07;28.53;;;18.60;;
17796;SDS011;55596;53.554;9.916;2024-03-08T07:55:34;28.10;;;18.77;;
17796;SDS011;55596;53.554;9.916;2024-03-08T07:58:02;28.37;;;18.43;;
17796;SDS011;55596;53.554;9.916;2024-03-08T08:00:30;28.40;;;18.07;;
17796;SDS011;55596;53.554;9.916;2024-03-08T08:02:57;31.63;;;18.03;;
17796;SDS011;55596;53.554;9.916;2024-03-08T08:05:24;26.40;;;18.40;;
17796;SDS011;55596;53.554;9.916;2024-03-08T08:07:53;29.53;;;19.57;;
17796;SDS011;55596;53.554;9.916;2024-03-08T08:10:21;26.17;;;17.77;;
17796;SDS011;55596;53.554;9.916;2024-03-08T08:12:49;32.87;;;19.20;;
17796;SDS011;55596;53.554;9.916;2024-03-08T08:15:17;24.70;;;18.40;;
17796;SDS011;55596;53.554;9.916;2024-03-08T08:17:44;28.23;;;18.63;;
17796;SDS011;55596;53.554;9.916;2024-03-08T08:20:11;30.73;;;18.80;;
17796;SDS011;55596;53.554;9.916;2024-03-08T08:22:38;27.83;;;18.00;;
17796;SDS011;55596;53.554;9.916;2024-03-08T08:25:07;26.70;;;19.00;;
17796;SDS011;55596;53.554;9.916;2024-03-08T08:27:37;26.47;;;18.40;;
17796;SDS011;55596;53.554;9.916;2024-03-08T08:30:05;25.43;;;17.73;;
17796;SDS011;55596;53.554;9.916;2024-03-08T08:32:33;26.47;;;17.60;;
17796;SDS011;55596;53.554;9.916;2024-03-08T08:35:01;27.63;;;18.73;;
17796;SDS011;55596;53.554;9.916;2024-03-08T08:37:29;30.60;;;18.63;;
17796;SDS011;55596;53.554;9.916;2024-03-08T08:39:56;29.43;;;19.20;;
17796;SDS011;55596;53.554;9.916;2024-03-08T08:42:25;27.07;;;18.63;;
17796;SDS011;55596;53.554;9.916;2024-03-08T08:44:53;25.00;;;17.13;;
17796;SDS011;55596;53.554;9.916;2024-03-08T08:47:23;27.73;;;19.33;;
17796;SDS011;55596;53.554;9.916;2024-03-08T08:49:50;29.40;;;20.13;;
17796;SDS011;55596;53.554;9.916;2024-03-08T08:52:20;26.17;;;17.47;;
17796;SDS011;55596;53.554;9.916;2024-03-08T08:54:48;27.47;;;18.83;;
17796;SDS011;55596;53.554;9.916;2024-03-08T08:57:16;29.37;;;18.80;;
17796;SDS011;55596;53.554;9.916;2024-03-08T08:59:49;27.73;;;18.63;;
17796;SDS011;55596;53.554;9.916;2024-03-08T09:02:16;26.37;;;18.77;;
17796;SDS011;55596;53.554;9.916;2024-03-08T09:04:45;33.37;;;18.77;;
17796;SDS011;55596;53.554;9.916;2024-03-08T09:07:13;27.90;;;18.80;;
17796;SDS011;55596;53.554;9.916;2024-03-08T09:09:42;27.17;;;19.20;;
17796;SDS011;55596;53.554;9.916;2024-03-08T09:12:09;26.03;;;18.50;;
17796;SDS011;55596;53.554;9.916;2024-03-08T09:14:38;25.43;;;18.27;;
17796;SDS011;55596;53.554;9.916;2024-03-08T09:17:07;29.13;;;18.80;;
17796;SDS011;55596;53.554;9.916;2024-03-08T09:19:34;27.77;;;18.93;;
17796;SDS011;55596;53.554;9.916;2024-03-08T09:22:01;26.83;;;17.53;;
17796;SDS011;55596;53.554;9.916;2024-03-08T09:24:29;27.47;;;18.47;;
17796;SDS011;55596;53.554;9.916;2024-03-08T09:26:57;25.93;;;17.93;;
17796;SDS011;55596;53.554;9.916;2024-03-08T09:29:24;29.23;;;17.93;;
17796;SDS011;55596;53.554;9.916;2024-03-08T09:31:52;25.50;;;19.13;;
17796;SDS011;55596;53.554;9.916;2024-03-08T09:34:20;26.73;;;17.30;;
17796;SDS011;55596;53.554;9.916;2024-03-08T09:36:47;25.70;;;18.07;;
17796;SDS011;55596;53.554;9.916;2024-03-08T09:39:15;28.27;;;17.83;;
17796;SDS011;55596;53.554;9.916;2024-03-08T09:41:44;24.63;;;17.33;;
17796;SDS011;55596;53.554;9.916;2024-03-08T09:44:16;28.17;;;17.70;;
17796;SDS011;55596;53.554;9.916;2024-03-08T09:46:44;27.70;;;18.00;;
17796;SDS011;55596;53.554;9.916;2024-03-08T09:49:12;23.40;;;16.70;;
17796;SDS011;55596;53.554;9.916;2024-03-08T09:51:41;23.03;;;16.47;;
17796;SDS011;55596;53.554;9.916;2024-03-08T09:54:08;22.77;;;17.23;;
17796;SDS011;55596;53.554;9.916;2024-03-08T09:56:36;25.90;;;16.80;;
17796;SDS011;55596;53.554;9.916;2024-03-08T09:59:03;24.77;;;16.73;;
17796;SDS011;55596;53.554;9.916;2024-03-08T10:01:48;26.00;;;17.10;;
17796;SDS011;55596;53.554;9.916;2024-03-08T10:04:16;23.00;;;16.30;;
17796;SDS011;55596;53.554;9.916;2024-03-08T10:06:46;25.40;;;16.27;;
17796;SDS011;55596;53.554;9.916;2024-03-08T10:09:13;26.30;;;18.03;;
17796;SDS011;55596;53.554;9.916;2024-03-08T10:11:41;27.20;;;17.07;;
17796;SDS011;55596;53.554;9.916;2024-03-08T10:14:10;24.23;;;16.30;;
17796;SDS011;55596;53.554;9.916;2024-03-08T10:16:37;24.97;;;16.37;;
17796;SDS011;55596;53.554;9.916;2024-03-08T10:19:05;24.00;;;16.20;;
17796;SDS011;55596;53.554;9.916;2024-03-08T10:21:33;23.40;;;17.40;;
17796;SDS011;55596;53.554;9.916;2024-03-08T10:24:01;23.87;;;16.63;;
17796;SDS011;55596;53.554;9.916;2024-03-08T10:26:29;23.37;;;17.67;;
17796;SDS011;55596;53.554;9.916;2024-03-08T10:28:57;22.57;;;16.70;;
17796;SDS011;55596;53.554;9.916;2024-03-08T10:31:24;23.83;;;16.77;;
17796;SDS011;55596;53.554;9.916;2024-03-08T10:33:51;23.47;;;15.80;;
17796;SDS011;55596;53.554;9.916;2024-03-08T10:36:19;22.50;;;15.73;;
17796;SDS011;55596;53.554;9.916;2024-03-08T10:38:46;24.90;;;16.27;;
17796;SDS011;55596;53.554;9.916;2024-03-08T10:41:15;27.73;;;15.83;;
17796;SDS011;55596;53.554;9.916;2024-03-08T10:43:52;24.10;;;16.20;;
17796;SDS011;55596;53.554;9.916;2024-03-08T10:46:27;22.00;;;16.20;;
17796;SDS011;55596;53.554;9.916;2024-03-08T10:48:57;22.77;;;15.70;;
17796;SDS011;55596;53.554;9.916;2024-03-08T10:51:27;21.90;;;14.37;;
17796;SDS011;55596;53.554;9.916;2024-03-08T10:53:57;19.63;;;14.63;;
17796;SDS011;55596;53.554;9.916;2024-03-08T10:56:29;20.73;;;14.33;;
17796;SDS011;55596;53.554;9.916;2024-03-08T10:58:56;19.17;;;14.17;;
17796;SDS011;55596;53.554;9.916;2024-03-08T11:01:23;20.40;;;13.63;;
17796;SDS011;55596;53.554;9.916;2024-03-08T11:03:51;20.23;;;14.30;;
17796;SDS011;55596;53.554;9.916;2024-03-08T11:06:22;19.07;;;13.90;;
17796;SDS011;55596;53.554;9.916;2024-03-08T11:08:49;20.77;;;15.03;;
17796;SDS011;55596;53.554;9.916;2024-03-08T11:11:24;19.67;;;14.10;;
17796;SDS011;55596;53.554;9.916;2024-03-08T11:13:56;18.73;;;14.67;;
17796;SDS011;55596;53.554;9.916;2024-03-08T11:16:36;22.03;;;13.70;;
17796;SDS011;55596;53.554;9.916;2024-03-08T11:19:06;19.57;;;14.93;;
17796;SDS011;55596;53.554;9.916;2024-03-08T11:21:56;22.53;;;14.10;;
17796;SDS011;55596;53.554;9.916;2024-03-08T11:24:23;19.70;;;14.00;;
17796;SDS011;55596;53.554;9.916;2024-03-08T11:26:54;17.53;;;12.53;;
17796;SDS011;55596;53.554;9.916;2024-03-08T11:29:34;19.00;;;13.70;;
17796;SDS011;55596;53.554;9.916;2024-03-08T11:32:09;19.53;;;13.40;;
17796;SDS011;55596;53.554;9.916;2024-03-08T11:34:36;18.77;;;14.00;;
17796;SDS011;55596;53.554;9.916;2024-03-08T11:37:04;21.77;;;14.43;;
17796;SDS011;55596;53.554;9.916;2024-03-08T11:39:34;20.13;;;13.97;;
17796;SDS011;55596;53.554;9.916;2024-03-08T11:42:03;18.30;;;13.57;;
17796;SDS011;55596;53.554;9.916;2024-03-08T11:44:30;20.00;;;13.80;;
17796;SDS011;55596;53.554;9.916;2024-03-08T11:46:59;19.97;;;13.90;;
17796;SDS011;55596;53.554;9.916;2024-03-08T11:49:26;18.07;;;13.60;;
17796;SDS011;55596;53.554;9.916;2024-03-08T11:51:53;19.13;;;14.57;;
17796;SDS011;55596;53.554;9.916;2024-03-08T11:54:21;20.23;;;13.77;;
17796;SDS011;55596;53.554;9.916;2024-03-08T11:56:51;17.00;;;12.70;;
17796;SDS011;55596;53.554;9.916;2024-03-08T11:59:20;15.63;;;12.90;;
17796;SDS011;55596;53.554;9.916;2024-03-08T12:02:01;16.27;;;12.67;;
17796;SDS011;55596;53.554;9.916;2024-03-08T12:04:28;16.37;;;12.43;;
17796;SDS011;55596;53.554;9.916;2024-03-08T12:06:58;17.20;;;12.43;;
17796;SDS011;55596;53.554;9.916;2024-03-08T12:09:27;17.07;;;12.10;;
17796;SDS011;55596;53.554;9.916;2024-03-08T12:11:54;18.73;;;12.70;;
17796;SDS011;55596;53.554;9.916;2024-03-08T12:14:21;18.97;;;11.53;;
17796;SDS011;55596;53.554;9.916;2024-03-08T12:16:50;17.00;;;12.30;;
17796;SDS011;55596;53.554;9.916;2024-03-08T12:19:19;17.63;;;12.10;;
17796;SDS011;55596;53.554;9.916;2024-03-08T12:21:46;16.20;;;12.73;;
17796;SDS011;55596;53.554;9.916;2024-03-08T12:24:14;15.13;;;12.20;;
17796;SDS011;55596;53.554;9.916;2024-03-08T12:26:44;16.93;;;13.57;;
17796;SDS011;55596;53.554;9.916;2024-03-08T12:29:20;17.40;;;12.50;;
17796;SDS011;55596;53.554;9.916;2024-03-08T12:31:51;15.68;;;11.95;;
17796;SDS011;55596;53.554;9.916;2024-03-08T12:34:20;15.35;;;12.80;;
17796;SDS011;55596;53.554;9.916;2024-03-08T12:36:47;16.65;;;12.88;;
17796;SDS011;55596;53.554;9.916;2024-03-08T12:39:18;19.83;;;13.38;;
17796;SDS011;55596;53.554;9.916;2024-03-08T12:41:47;14.70;;;12.87;;
17796;SDS011;55596;53.554;9.916;2024-03-08T12:44:16;15.00;;;12.93;;
17796;SDS011;55596;53.554;9.916;2024-03-08T12:46:44;16.35;;;12.80;;
17796;SDS011;55596;53.554;9.916;2024-03-08T12:49:11;13.80;;;11.75;;
17796;SDS011;55596;53.554;9.916;2024-03-08T12:51:43;15.50;;;12.25;;
17796;SDS011;55596;53.554;9.916;2024-03-08T12:54:10;15.85;;;12.52;;
17796;SDS011;55596;53.554;9.916;2024-03-08T12:56:37;13.98;;;10.90;;
17796;SDS011;55596;53.554;9.916;2024-03-08T12:59:05;15.27;;;11.75;;
17796;SDS011;55596;53.554;9.916;2024-03-08T13:01:33;16.52;;;11.95;;
17796;SDS011;55596;53.554;9.916;2024-03-08T13:04:02;14.43;;;12.00;;
17796;SDS011;55596;53.554;9.916;2024-03-08T13:06:31;14.40;;;11.80;;
17796;SDS011;55596;53.554;9.916;2024-03-08T13:09:04;13.57;;;12.10;;
17796;SDS011;55596;53.554;9.916;2024-03-08T13:11:31;16.70;;;12.10;;
17796;SDS011;55596;53.554;9.916;2024-03-08T13:14:01;16.48;;;11.65;;
17796;SDS011;55596;53.554;9.916;2024-03-08T13:16:29;18.05;;;12.40;;
17796;SDS011;55596;53.554;9.916;2024-03-08T13:18:56;15.15;;;12.50;;
17796;SDS011;55596;53.554;9.916;2024-03-08T13:21:24;14.52;;;12.10;;
17796;SDS011;55596;53.554;9.916;2024-03-08T13:23:51;13.13;;;11.23;;
17796;SDS011;55596;53.554;9.916;2024-03-08T13:26:19;15.27;;;11.00;;
17796;SDS011;55596;53.554;9.916;2024-03-08T13:28:47;16.02;;;11.57;;
17796;SDS011;55596;53.554;9.916;2024-03-08T13:31:18;12.27;;;10.82;;
17796;SDS011;55596;53.554;9.916;2024-03-08T13:33:47;15.15;;;11.15;;
17796;SDS011;55596;53.554;9.916;2024-03-08T13:36:16;12.45;;;11.07;;
17796;SDS011;55596;53.554;9.916;2024-03-08T13:38:46;13.02;;;11.32;;
17796;SDS011;55596;53.554;9.916;2024-03-08T13:41:13;14.00;;;12.18;;
17796;SDS011;55596;53.554;9.916;2024-03-08T13:43:44;13.88;;;11.13;;
17796;SDS011;55596;53.554;9.916;2024-03-08T13:46:14;14.77;;;12.15;;
17796;SDS011;55596;53.554;9.916;2024-03-08T13:48:41;18.42;;;11.02;;
17796;SDS011;55596;53.554;9.916;2024-03-08T13:51:08;14.68;;;11.20;;
17796;SDS011;55596;53.554;9.916;2024-03-08T13:53:40;13.38;;;10.13;;
17796;SDS011;55596;53.554;9.916;2024-03-08T13:56:07;11.75;;;10.52;;
17796;SDS011;55596;53.554;9.916;2024-03-08T13:58:35;14.75;;;11.07;;
17796;SDS011;55596;53.554;9.916;2024-03-08T14:01:04;14.20;;;11.80;;
17796;SDS011;55596;53.554;9.916;2024-03-08T14:03:36;12.73;;;11.02;;
17796;SDS011;55596;53.554;9.916;2024-03-08T14:06:03;13.75;;;10.68;;
17796;SDS011;55596;53.554;9.916;2024-03-08T14:08:32;13.10;;;11.10;;
17796;SDS011;55596;53.554;9.916;2024-03-08T14:10:59;13.68;;;11.55;;
17796;SDS011;55596;53.554;9.916;2024-03-08T14:13:36;12.70;;;10.45;;
17796;SDS011;55596;53.554;9.916;2024-03-08T14:16:07;13.80;;;11.10;;
17796;SDS011;55596;53.554;9.916;2024-03-08T14:18:35;13.35;;;11.75;;
17796;SDS011;55596;53.554;9.916;2024-03-08T14:21:03;13.95;;;11.20;;
17796;SDS011;55596;53.554;9.916;2024-03-08T14:23:30;12.15;;;10.80;;
17796;SDS011;55596;53.554;9.916;2024-03-08T14:25:57;13.82;;;11.10;;
17796;SDS011;55596;53.554;9.916;2024-03-08T14:28:25;12.57;;;10.65;;